Time;durP1;ratioP1;P1;durP2;ratioP2;P2;SDS_P1;SDS_P2;PMS_P1;PMS_P2;Temp;Humidity;BMP_temperature;BMP_pressure;BME280_temperature;BME280_humidity;BME280_pressure;Samples;Min_cycle;Max_cycle;Signal;HPM_P1;HPM_P2
2021/09/15 00:01:26;;;;;;;;;9.50;5.75;;;;;23.47;67.81;100632.19;6341752;22;46655;-69
2021/09/15 00:03:51;;;;;;;;;7.25;6.00;;;;;23.41;67.97;100628.16;6341200;22;45272;-69
2021/09/15 00:06:17;;;;;;;;;8.00;5.00;;;;;23.46;67.72;100627.75;6313849;22;45167;-69
2021/09/15 00:08:42;;;;;;;;;6.25;6.25;;;;;23.42;67.20;100620.81;6313160;22;45473;-69
2021/09/15 00:11:08;;;;;;;;;5.00;5.00;;;;;23.38;67.68;100614.78;6341570;22;46193;-69
2021/09/15 00:13:33;;;;;;;;;6.25;4.00;;;;;23.18;67.42;100575.72;6312947;22;45228;-69
2021/09/15 00:15:58;;;;;;;;;4.00;4.00;;;;;23.38;67.68;100611.22;6313986;22;45581;-69
2021/09/15 00:18:24;;;;;;;;;4.75;4.75;;;;;23.23;67.94;100603.38;6312833;22;45223;-69
2021/09/15 00:20:49;;;;;;;;;6.50;5.00;;;;;23.18;67.89;100594.78;6340707;22;45250;-69
2021/09/15 00:23:15;;;;;;;;;7.00;4.75;;;;;23.06;67.43;100580.38;6341691;22;45277;-69
2021/09/15 00:25:40;;;;;;;;;4.75;4.00;;;;;23.27;67.87;100610.31;6339818;22;45216;-69
2021/09/15 00:28:06;;;;;;;;;3.50;3.50;;;;;23.16;67.79;100604.94;6341441;22;45158;-69
2021/09/15 00:30:31;;;;;;;;;3.00;3.00;;;;;23.07;67.76;100594.84;6341633;22;45286;-69
2021/09/15 00:32:56;;;;;;;;;4.00;3.75;;;;;23.21;67.44;100621.72;6341538;22;45244;-69
2021/09/15 00:35:22;;;;;;;;;4.25;3.25;;;;;23.18;67.69;100616.56;6341601;22;45135;-69
2021/09/15 00:37:47;;;;;;;;;4.00;4.00;;;;;23.02;67.92;100581.63;6341522;22;45271;-69
2021/09/15 00:40:13;;;;;;;;;5.00;4.00;;;;;22.91;67.94;100568.09;6341490;22;45147;-69
2021/09/15 00:42:38;;;;;;;;;4.00;4.00;;;;;22.90;67.88;100575.41;6312920;22;45220;-69
2021/09/15 00:45:05;;;;;;;;;3.50;2.75;;;;;22.91;67.94;100568.94;6341346;22;45253;-69
2021/09/15 00:47:30;;;;;;;;;4.00;4.00;;;;;23.07;67.77;100595.72;6341365;22;45433;-69
2021/09/15 00:49:55;;;;;;;;;3.50;3.50;;;;;22.89;67.83;100565.50;6340789;22;45373;-69
2021/09/15 00:52:22;;;;;;;;;3.00;3.00;;;;;22.95;67.95;100574.97;6340833;22;45263;-69
2021/09/15 00:54:48;;;;;;;;;5.50;5.25;;;;;23.05;67.97;100585.91;6341717;22;45321;-69
2021/09/15 00:57:13;;;;;;;;;4.00;4.00;;;;;23.01;67.84;100585.34;6341509;22;45765;-69
2021/09/15 00:59:40;;;;;;;;;5.00;4.50;;;;;22.98;67.78;100582.88;6312924;22;47331;-69
2021/09/15 01:02:05;;;;;;;;;4.00;4.00;;;;;23.02;67.88;100594.34;6340687;22;45429;-69
2021/09/15 01:04:30;;;;;;;;;4.75;3.00;;;;;22.79;67.94;100561.84;6341223;22;45244;-69
2021/09/15 01:06:56;;;;;;;;;4.25;4.25;;;;;22.96;68.22;100587.59;6313336;22;45200;-69
2021/09/15 01:09:22;;;;;;;;;1.50;1.50;;;;;22.79;68.05;100574.56;6341337;22;46376;-69
2021/09/15 01:11:48;;;;;;;;;4.00;4.00;;;;;22.87;68.04;100588.38;6341486;22;45109;-69
2021/09/15 01:14:14;;;;;;;;;2.50;2.50;;;;;22.92;68.38;100600.63;6341486;22;45154;-69
2021/09/15 01:16:53;;;;;;;;;7.00;5.00;;;;;22.96;68.01;100598.47;6341548;22;45077;-69
2021/09/15 01:19:19;;;;;;;;;5.75;4.25;;;;;22.87;68.41;100578.38;6340406;22;45926;-69
2021/09/15 01:21:46;;;;;;;;;6.25;5.00;;;;;22.96;67.81;100593.03;6341245;22;45353;-69
2021/09/15 01:24:12;;;;;;;;;3.75;3.75;;;;;22.93;68.08;100591.44;6341484;22;45285;-69
2021/09/15 01:26:38;;;;;;;;;4.50;4.50;;;;;22.92;68.62;100570.69;6313023;22;45497;-69
2021/09/15 01:29:03;;;;;;;;;4.00;3.25;;;;;22.88;68.19;100569.19;6341211;22;45176;-69
2021/09/15 01:31:28;;;;;;;;;3.50;3.50;;;;;22.90;68.21;100567.22;6340894;22;45146;-69
2021/09/15 01:33:54;;;;;;;;;5.00;5.00;;;;;22.82;68.18;100558.88;6341061;22;45211;-69
2021/09/15 01:36:19;;;;;;;;;4.75;4.00;;;;;22.83;67.87;100557.00;6341368;22;45199;-69
2021/09/15 01:38:44;;;;;;;;;7.00;7.00;;;;;22.84;68.25;100558.75;6340859;22;45342;-69
2021/09/15 01:41:10;;;;;;;;;7.00;6.50;;;;;23.01;67.88;100585.34;6312746;22;46048;-69
2021/09/15 01:43:35;;;;;;;;;5.75;5.75;;;;;22.85;68.16;100566.75;6341265;22;45464;-69
2021/09/15 01:46:01;;;;;;;;;5.00;5.00;;;;;22.99;67.83;100579.16;6341244;22;45252;-69
2021/09/15 01:48:26;;;;;;;;;6.25;5.50;;;;;22.90;67.85;100561.78;6340292;22;45945;-69
2021/09/15 01:50:51;;;;;;;;;4.75;4.75;;;;;22.83;67.84;100546.97;6340952;22;45317;-69
2021/09/15 01:53:17;;;;;;;;;7.75;6.00;;;;;22.95;68.05;100574.97;6341261;22;45211;-69
2021/09/15 01:55:42;;;;;;;;;6.00;5.00;;;;;23.01;68.16;100584.47;6312826;22;45490;-70
2021/09/15 01:58:10;;;;;;;;;6.00;6.00;;;;;22.98;67.95;100577.44;6340899;22;45351;-69
2021/09/15 02:00:37;;;;;;;;;7.25;6.75;;;;;22.97;68.02;100577.56;6340833;22;45161;-69
2021/09/15 02:03:03;;;;;;;;;6.50;6.50;;;;;22.93;68.35;100579.69;6341293;22;45235;-69
2021/09/15 02:05:28;;;;;;;;;6.00;6.00;;;;;22.93;68.20;100586.00;6340604;22;45273;-69
2021/09/15 02:07:54;;;;;;;;;5.00;5.00;;;;;22.96;68.05;100594.91;6340779;22;46237;-69
2021/09/15 02:10:19;;;;;;;;;8.00;6.25;;;;;22.96;68.23;100594.91;6340878;22;45256;-69
2021/09/15 02:12:45;;;;;;;;;8.00;6.00;;;;;22.92;68.20;100583.41;6341188;22;45208;-69
2021/09/15 02:15:12;;;;;;;;;6.00;6.00;;;;;22.90;67.89;100582.69;6340754;22;45147;-69
2021/09/15 02:17:38;;;;;;;;;5.00;5.00;;;;;22.97;68.20;100599.34;6312421;22;48263;-69
2021/09/15 02:20:06;;;;;;;;;5.00;5.00;;;;;22.98;67.80;100596.47;6340460;22;45353;-69
2021/09/15 02:22:31;;;;;;;;;5.00;4.00;;;;;22.96;68.11;100592.19;6340676;22;45108;-69
2021/09/15 02:24:57;;;;;;;;;4.25;4.25;;;;;22.98;68.09;100592.91;6340698;22;45165;-69
2021/09/15 02:27:22;;;;;;;;;4.75;4.75;;;;;22.91;68.14;100590.72;6340786;22;45887;-69
2021/09/15 02:29:48;;;;;;;;;6.25;4.25;;;;;22.98;68.10;100591.03;6340558;22;45155;-69
2021/09/15 02:32:13;;;;;;;;;5.75;5.00;;;;;22.99;67.93;100591.88;6340788;22;45346;-70
2021/09/15 02:34:38;;;;;;;;;5.00;4.00;;;;;22.97;67.81;100585.72;6340404;22;45507;-69
2021/09/15 02:37:04;;;;;;;;;7.00;6.00;;;;;22.94;68.17;100593.16;6340543;22;45258;-69
2021/09/15 02:39:30;;;;;;;;;5.00;5.00;;;;;22.92;68.01;100603.34;6340489;22;45245;-69
2021/09/15 02:41:56;;;;;;;;;4.00;4.00;;;;;22.93;68.14;100605.03;6340410;22;45215;-69
2021/09/15 02:44:21;;;;;;;;;4.25;4.25;;;;;22.92;67.72;100608.78;6341482;22;45334;-69
2021/09/15 02:46:47;;;;;;;;;4.50;3.75;;;;;22.92;68.28;100614.22;6342404;22;46451;-69
2021/09/15 02:49:12;;;;;;;;;4.25;4.25;;;;;22.93;67.99;100618.66;6341426;22;45227;-70
2021/09/15 02:51:37;;;;;;;;;5.50;5.00;;;;;22.93;68.04;100618.66;6342616;22;45262;-69
2021/09/15 02:54:03;;;;;;;;;3.25;3.25;;;;;22.89;68.05;100614.47;6342062;22;45180;-69
2021/09/15 02:56:28;;;;;;;;;6.75;4.75;;;;;22.94;68.06;100619.53;6342000;22;46023;-69
2021/09/15 02:58:53;;;;;;;;;5.00;5.00;;;;;22.89;67.78;100609.03;6341982;22;45274;-69
2021/09/15 03:01:18;;;;;;;;;6.00;5.50;;;;;22.93;68.35;100613.22;6342515;22;45165;-69
2021/09/15 03:03:44;;;;;;;;;6.25;5.25;;;;;22.92;68.23;100611.50;6341956;22;45472;-69
2021/09/15 03:06:09;;;;;;;;;3.50;3.50;;;;;22.91;68.35;100606.19;6342390;22;45333;-69
2021/09/15 03:08:35;;;;;;;;;6.25;6.25;;;;;22.91;68.40;100606.19;6341936;22;45164;-69
2021/09/15 03:11:00;;;;;;;;;5.50;5.50;;;;;22.92;68.35;100602.44;6342334;22;45260;-69
2021/09/15 03:13:26;;;;;;;;;7.25;6.25;;;;;22.89;68.50;100598.16;6312877;22;45453;-69
2021/09/15 03:15:51;;;;;;;;;5.00;4.25;;;;;22.90;68.70;100599.88;6342018;22;45355;-69
2021/09/15 03:18:17;;;;;;;;;5.50;5.50;;;;;22.87;68.67;100594.72;6341178;22;45297;-69
2021/09/15 03:20:42;;;;;;;;;5.00;3.75;;;;;22.90;68.21;100591.72;6341957;22;45297;-69
2021/09/15 03:23:08;;;;;;;;;4.25;4.25;;;;;22.91;68.39;100595.31;6341808;22;45097;-69
2021/09/15 03:25:33;;;;;;;;;3.75;3.75;;;;;22.92;68.47;100597.00;6341765;22;45452;-69
2021/09/15 03:27:58;;;;;;;;;5.00;5.00;;;;;22.85;68.35;100579.50;6341094;22;45322;-69
2021/09/15 03:30:24;;;;;;;;;5.25;5.00;;;;;22.92;68.07;100591.56;6341631;22;45329;-69
2021/09/15 03:32:49;;;;;;;;;6.00;6.00;;;;;22.93;68.66;100587.84;6341501;22;45201;-69
2021/09/15 03:35:14;;;;;;;;;6.00;6.00;;;;;22.84;68.49;100578.66;6341674;22;45187;-70
2021/09/15 03:37:40;;;;;;;;;4.25;4.25;;;;;22.91;68.36;100598.03;6341836;22;45136;-69
2021/09/15 03:40:07;;;;;;;;;5.75;5.75;;;;;22.90;68.51;100597.16;6341929;22;45466;-69
2021/09/15 03:42:32;;;;;;;;;7.75;7.75;;;;;22.90;68.54;100594.44;6341654;22;45679;-69
2021/09/15 03:44:58;;;;;;;;;11.25;9.25;;;;;22.87;68.74;100599.25;6341916;22;46480;-69
2021/09/15 03:47:23;;;;;;;;;11.00;10.00;;;;;22.89;68.41;100606.31;6342094;22;45282;-69
2021/09/15 03:49:48;;;;;;;;;10.00;8.50;;;;;22.89;68.86;100600.03;6341377;22;45157;-69
2021/09/15 03:52:14;;;;;;;;;9.25;9.25;;;;;22.91;68.52;100615.19;6341870;22;45415;-69
2021/09/15 03:54:39;;;;;;;;;10.75;8.50;;;;;22.88;68.57;100606.44;6341921;22;46020;-69
2021/09/15 03:57:05;;;;;;;;;8.25;8.25;;;;;22.87;68.21;100616.47;6341987;22;45247;-70
2021/09/15 03:59:30;;;;;;;;;8.50;8.50;;;;;22.86;68.65;100624.78;6341493;22;45089;-69
2021/09/15 04:01:56;;;;;;;;;10.50;8.25;;;;;22.78;68.66;100609.09;6341733;22;45146;-69
2021/09/15 04:04:21;;;;;;;;;6.00;5.00;;;;;22.83;68.57;100614.16;6341479;22;46041;-69
2021/09/15 04:06:47;;;;;;;;;6.00;6.00;;;;;22.84;68.82;100613.16;6341923;22;45160;-69
2021/09/15 04:09:12;;;;;;;;;6.00;6.00;;;;;22.82;68.46;100610.56;6340211;22;45185;-70
2021/09/15 04:11:37;;;;;;;;;6.00;5.50;;;;;22.83;68.69;100609.56;6341711;22;45412;-69
2021/09/15 04:14:03;;;;;;;;;3.00;3.00;;;;;22.84;68.65;100608.56;6341626;22;45387;-69
2021/09/15 04:16:28;;;;;;;;;5.75;5.50;;;;;22.86;68.67;100614.75;6341223;22;45440;-70
2021/09/15 04:18:54;;;;;;;;;5.75;5.75;;;;;22.86;68.44;100617.47;6340897;22;45206;-69
2021/09/15 04:21:19;;;;;;;;;7.00;7.00;;;;;22.81;68.48;100607.97;6341395;22;45399;-69
2021/09/15 04:31:47;;;;;;;;;6.00;6.00;;;;;22.79;68.89;100612.66;6341576;22;45156;-69
2021/09/15 04:34:12;;;;;;;;;7.50;6.00;;;;;22.75;68.54;100614.78;6341257;22;46353;-69
2021/09/15 04:36:38;;;;;;;;;7.25;7.00;;;;;22.74;68.92;100618.53;6341593;22;45270;-69
2021/09/15 04:39:03;;;;;;;;;6.75;6.75;;;;;22.73;68.86;100608.63;6341886;22;45337;-70
2021/09/15 04:41:28;;;;;;;;;5.25;5.25;;;;;22.74;68.69;100604.94;6341030;22;45223;-69
2021/09/15 04:43:54;;;;;;;;;6.25;6.25;;;;;22.70;68.87;100598.00;6341170;22;45190;-70
2021/09/15 04:46:19;;;;;;;;;9.00;7.75;;;;;22.74;68.40;100602.22;6341614;22;45219;-69
2021/09/15 04:48:44;;;;;;;;;8.25;7.00;;;;;22.76;68.43;100606.50;6340778;22;45237;-70
2021/09/15 04:51:12;;;;;;;;;6.75;6.00;;;;;22.78;68.72;100609.09;6341582;22;45132;-69
2021/09/15 04:53:37;;;;;;;;;9.50;8.75;;;;;22.72;69.34;100596.91;6340756;22;45858;-70
2021/09/15 04:56:03;;;;;;;;;7.25;7.25;;;;;22.80;69.00;100606.25;6341239;22;45253;-69
2021/09/15 04:58:28;;;;;;;;;8.00;8.00;;;;;22.76;68.58;100592.91;6341296;22;45233;-69
2021/09/15 05:00:53;;;;;;;;;7.25;7.25;;;;;22.78;69.10;100606.38;6341402;22;45560;-69
2021/09/15 05:03:19;;;;;;;;;7.00;7.00;;;;;22.75;68.48;100607.50;6312894;22;47201;-69
2021/09/15 05:05:44;;;;;;;;;5.00;5.00;;;;;22.73;68.53;100611.34;6341545;22;45239;-69
2021/09/15 05:08:09;;;;;;;;;6.25;6.25;;;;;22.77;68.50;100621.00;6341220;22;45328;-69
2021/09/15 05:10:35;;;;;;;;;7.25;7.00;;;;;22.74;68.56;100616.66;6341423;22;45441;-69
2021/09/15 05:13:00;;;;;;;;;7.00;7.00;;;;;22.74;68.60;100618.53;6313901;22;46163;-69
2021/09/15 05:15:26;;;;;;;;;6.50;6.50;;;;;22.74;68.86;100618.53;6341565;22;45073;-69
2021/09/15 05:17:52;;;;;;;;;11.00;10.25;;;;;22.68;68.73;100619.03;6340806;22;45329;-69
2021/09/15 05:20:19;;;;;;;;;10.25;8.25;;;;;22.69;69.10;100621.63;6340817;22;45460;-69
2021/09/15 05:22:50;;;;;;;;;8.50;6.75;;;;;22.65;68.70;100617.44;6312730;22;45945;-69
2021/09/15 05:25:18;;;;;;;;;6.00;6.00;;;;;22.70;69.11;100619.78;6341135;22;45184;-69
2021/09/15 05:27:44;;;;;;;;;8.00;8.00;;;;;22.67;68.77;100620.03;6313136;22;45219;-69
2021/09/15 05:30:11;;;;;;;;;6.25;6.25;;;;;22.72;68.73;100631.38;6340689;22;45599;-69
2021/09/15 05:32:37;;;;;;;;;6.00;6.00;;;;;22.69;68.82;100624.34;6341363;22;46449;-69
2021/09/15 05:35:06;;;;;;;;;9.75;8.25;;;;;22.70;68.78;100631.53;6341126;22;45173;-69
2021/09/15 05:37:32;;;;;;;;;7.00;5.50;;;;;22.64;68.96;100623.88;6341250;22;45215;-69
2021/09/15 05:39:59;;;;;;;;;12.25;8.00;;;;;22.66;68.95;100629.19;6340539;22;45284;-69
2021/09/15 05:42:24;;;;;;;;;11.50;9.75;;;;;22.68;69.05;100633.50;6340774;22;46050;-69
2021/09/15 05:44:49;;;;;;;;;7.00;4.75;;;;;22.65;68.64;100638.34;6339959;22;45274;-73
2021/09/15 05:47:15;;;;;;;;;7.25;7.25;;;;;22.68;69.08;100636.22;6341067;22;45219;-72
2021/09/15 05:49:41;;;;;;;;;10.75;7.00;;;;;22.66;69.07;100640.09;6340248;22;45333;-72
2021/09/15 05:52:06;;;;;;;;;8.50;7.25;;;;;22.64;68.74;100640.22;6339588;22;45270;-72
2021/09/15 05:54:32;;;;;;;;;9.00;8.00;;;;;22.70;69.13;100646.97;6340839;22;45285;-72
2021/09/15 05:56:57;;;;;;;;;12.75;11.25;;;;;22.67;68.79;100653.56;6312946;22;45436;-72
2021/09/15 05:59:22;;;;;;;;;10.00;9.00;;;;;22.67;69.23;100655.41;6339652;22;45361;-72
2021/09/15 06:01:49;;;;;;;;;6.75;6.75;;;;;22.58;69.07;100644.28;6340617;22;45269;-74
2021/09/15 06:04:18;;;;;;;;;9.75;9.50;;;;;22.60;69.25;100644.16;6340138;22;45465;-75
2021/09/15 06:06:43;;;;;;;;;9.50;8.25;;;;;22.48;69.42;100629.75;6340431;22;45312;-75
2021/09/15 06:09:11;;;;;;;;;8.75;7.75;;;;;22.39;69.13;100616.94;6340528;22;45770;-74
2021/09/15 06:11:37;;;;;;;;;11.25;10.25;;;;;22.46;69.18;100639.06;6338583;22;48170;-74
2021/09/15 06:14:06;;;;;;;;;8.25;8.25;;;;;22.38;68.70;100620.66;6340568;22;45409;-75
2021/09/15 06:16:31;;;;;;;;;10.50;9.25;;;;;22.36;69.09;100620.78;6340572;22;45158;-74
2021/09/15 06:18:56;;;;;;;;;8.50;8.50;;;;;22.43;69.05;100629.28;6340316;22;45150;-69
2021/09/15 06:21:22;;;;;;;;;9.75;8.75;;;;;22.63;69.16;100667.53;6341703;22;45369;-69
2021/09/15 06:23:47;;;;;;;;;12.50;8.00;;;;;22.50;69.34;100651.38;6341912;22;45120;-69
2021/09/15 06:26:13;;;;;;;;;9.25;9.25;;;;;22.53;69.43;100649.25;6341827;22;45139;-69
2021/09/15 06:28:38;;;;;;;;;10.50;10.50;;;;;22.56;69.02;100651.72;6341671;22;45089;-69
2021/09/15 06:31:05;;;;;;;;;13.25;9.50;;;;;22.47;69.41;100638.03;6341867;22;45266;-69
2021/09/15 06:33:31;;;;;;;;;8.00;8.00;;;;;22.41;69.21;100628.56;6341658;22;45374;-69
2021/09/15 06:35:57;;;;;;;;;10.50;9.50;;;;;22.36;69.68;100620.78;6341962;22;45341;-69
2021/09/15 06:38:23;;;;;;;;;9.50;9.50;;;;;22.57;69.28;100656.19;6342073;22;45329;-69
2021/09/15 06:40:48;;;;;;;;;10.50;9.00;;;;;22.47;69.62;100646.19;6339857;22;47700;-69
2021/09/15 06:43:14;;;;;;;;;12.75;11.50;;;;;22.60;69.75;100665.94;6341615;22;45400;-69
2021/09/15 06:45:39;;;;;;;;;11.75;9.00;;;;;22.61;69.51;100672.25;6313518;22;45306;-68
2021/09/15 06:48:05;;;;;;;;;11.25;10.00;;;;;22.57;69.69;100669.78;6312910;22;45382;-70
2021/09/15 06:50:31;;;;;;;;;10.25;9.00;;;;;22.52;69.58;100663.00;6307650;22;48588;-68
2021/09/15 06:52:57;;;;;;;;;11.50;11.50;;;;;22.48;69.48;100654.22;6339673;22;45405;-69
2021/09/15 06:55:25;;;;;;;;;15.75;11.00;;;;;22.43;69.22;100651.03;6341383;22;45235;-69
2021/09/15 06:57:51;;;;;;;;;11.25;10.00;;;;;22.43;69.40;100651.03;6340992;22;45373;-69
2021/09/15 07:00:20;;;;;;;;;11.50;10.25;;;;;22.63;69.93;100683.88;6340488;22;46095;-69
2021/09/15 07:02:47;;;;;;;;;8.50;8.50;;;;;22.48;69.53;100666.97;6313190;22;45209;-68
2021/09/15 07:05:14;;;;;;;;;9.00;8.50;;;;;22.54;69.91;100669.19;6313228;22;45290;-69
2021/09/15 07:07:40;;;;;;;;;10.50;9.25;;;;;22.51;69.62;100673.03;6312274;22;45396;-68
2021/09/15 07:10:07;;;;;;;;;10.75;10.75;;;;;22.45;69.69;100659.06;6335072;22;46919;-69
2021/09/15 07:12:33;;;;;;;;;9.00;9.00;;;;;22.60;69.60;100686.84;6340123;22;45381;-70
2021/09/15 07:14:59;;;;;;;;;14.25;13.00;;;;;22.55;69.87;100685.38;6312606;22;45429;-66
2021/09/15 07:17:24;;;;;;;;;12.00;10.50;;;;;22.37;69.88;100659.72;6338888;22;45363;-68
2021/09/15 07:19:50;;;;;;;;;11.50;10.50;;;;;22.36;69.91;100660.72;6337955;22;45466;-68
2021/09/15 07:22:15;;;;;;;;;12.50;11.50;;;;;22.52;69.87;100688.34;6340031;22;45305;-68
2021/09/15 07:24:41;;;;;;;;;10.75;10.75;;;;;22.49;70.06;100688.59;6312370;22;45358;-69
2021/09/15 07:27:06;;;;;;;;;6.50;6.50;;;;;22.41;70.30;100680.22;6340961;22;45275;-69
2021/09/15 07:29:32;;;;;;;;;12.50;9.50;;;;;22.34;69.62;100682.59;6310589;22;46473;-70
2021/09/15 07:31:58;;;;;;;;;14.00;9.75;;;;;22.38;69.60;100686.78;6311371;22;45828;-69
2021/09/15 07:34:24;;;;;;;;;11.75;11.75;;;;;22.18;70.01;100661.19;6340717;22;45296;-70
2021/09/15 07:36:49;;;;;;;;;13.25;11.25;;;;;22.54;69.90;100712.72;6313362;22;45395;-70
2021/09/15 07:39:15;;;;;;;;;9.25;9.25;;;;;22.50;70.15;100711.22;6340288;22;45660;-70
2021/09/15 07:41:40;;;;;;;;;13.00;10.50;;;;;22.33;70.06;100677.28;6340601;22;45656;-70
2021/09/15 07:44:06;;;;;;;;;9.00;9.00;;;;;22.33;70.06;100680.84;6312354;22;45307;-70
2021/09/15 07:46:33;;;;;;;;;9.75;9.75;;;;;22.53;69.86;100710.97;6341127;22;45297;-70
2021/09/15 07:48:58;;;;;;;;;10.75;9.00;;;;;22.44;69.76;100693.56;6339764;22;45810;-70
2021/09/15 07:51:24;;;;;;;;;10.00;10.00;;;;;22.46;70.21;100698.88;6340522;22;45291;-70
2021/09/15 07:53:50;;;;;;;;;9.75;8.25;;;;;22.46;69.78;100690.72;6313202;22;45397;-70
2021/09/15 07:56:15;;;;;;;;;7.00;6.25;;;;;22.52;69.99;100701.97;6340658;22;45361;-70
2021/09/15 07:58:41;;;;;;;;;9.50;8.25;;;;;22.42;70.05;100683.78;6311523;22;45443;-70
2021/09/15 08:01:06;;;;;;;;;7.50;7.00;;;;;22.56;70.07;100710.72;6338835;22;45501;-70
2021/09/15 08:03:32;;;;;;;;;9.50;9.00;;;;;22.42;70.16;100684.69;6339674;22;45372;-69
2021/09/15 08:06:04;;;;;;;;;9.50;9.00;;;;;22.38;69.99;100686.78;6341226;22;45464;-72
2021/09/15 08:08:29;;;;;;;;;8.75;5.75;;;;;22.35;70.50;100678.00;6336507;22;45338;-68
2021/09/15 08:10:55;;;;;;;;;7.50;7.50;;;;;22.49;70.10;100706.78;6339141;22;45347;-70
2021/09/15 08:13:23;;;;;;;;;4.00;3.50;;;;;22.23;70.36;100677.13;6340791;22;45296;-69
2021/09/15 08:15:49;;;;;;;;;6.50;6.00;;;;;22.30;70.59;100693.84;6338102;22;45331;-69
2021/09/15 08:18:17;;;;;;;;;7.00;6.25;;;;;22.23;70.59;100681.72;6284916;22;47155;-68
2021/09/15 08:20:46;;;;;;;;;7.00;6.00;;;;;22.47;70.29;100728.69;6341414;22;45120;-70
2021/09/15 08:23:17;;;;;;;;;7.25;6.25;;;;;22.38;70.56;100724.84;6340110;22;45324;-70
2021/09/15 08:25:43;;;;;;;;;6.50;5.50;;;;;22.37;70.67;100728.56;6341338;22;45334;-70
2021/09/15 08:28:09;;;;;;;;;8.75;6.75;;;;;22.29;70.91;100722.91;6340206;22;45271;-70
2021/09/15 08:30:34;;;;;;;;;6.00;6.00;;;;;22.24;70.70;100710.66;6341255;22;45162;-70
2021/09/15 08:33:00;;;;;;;;;9.25;7.75;;;;;22.20;71.05;100710.00;6340672;22;45202;-70
2021/09/15 08:35:25;;;;;;;;;6.50;5.50;;;;;22.18;71.05;100712.84;6341424;22;45495;-70
2021/09/15 08:37:51;;;;;;;;;6.00;6.00;;;;;22.33;70.96;100747.97;6340968;22;45324;-69
2021/09/15 08:40:17;;;;;;;;;8.25;6.50;;;;;22.09;71.65;100713.63;6341078;22;45229;-69
2021/09/15 08:42:42;;;;;;;;;5.75;5.25;;;;;22.24;71.32;100735.13;6339636;22;45669;-69
2021/09/15 08:45:10;;;;;;;;;7.75;7.00;;;;;22.08;71.81;100711.88;6341056;22;45293;-69
2021/09/15 08:47:39;;;;;;;;;8.00;8.00;;;;;22.13;71.46;100715.09;6338988;22;46295;-69
2021/09/15 08:50:06;;;;;;;;;5.50;4.50;;;;;22.15;71.33;100714.97;6340684;22;45526;-69
2021/09/15 08:52:32;;;;;;;;;8.00;6.75;;;;;22.26;71.59;100747.59;6341109;22;45356;-70
2021/09/15 08:54:57;;;;;;;;;6.00;6.00;;;;;22.01;71.61;100699.78;6341170;22;45224;-70
2021/09/15 08:57:23;;;;;;;;;7.50;7.00;;;;;22.23;71.58;100736.94;6341019;22;46569;-69
2021/09/15 08:59:48;;;;;;;;;6.25;6.00;;;;;22.22;71.89;100746.13;6340440;22;45424;-69
2021/09/15 09:02:14;;;;;;;;;6.50;6.50;;;;;22.07;71.83;100741.91;6340211;22;45446;-69
2021/09/15 09:04:58;;;;;;;;;7.25;6.00;;;;;22.15;72.02;100751.19;6340022;22;45468;-69
2021/09/15 09:07:24;;;;;;;;;10.00;8.50;;;;;22.08;71.86;100733.63;6340891;22;45798;-67
2021/09/15 09:09:55;;;;;;;;;8.00;8.00;;;;;21.98;72.09;100719.06;6340624;22;45404;-69
2021/09/15 09:12:26;;;;;;;;;5.75;4.50;;;;;22.16;72.08;100750.19;6339256;22;45405;-69
2021/09/15 09:14:53;;;;;;;;;5.25;4.75;;;;;22.16;72.25;100744.75;6340688;22;45092;-69
2021/09/15 09:17:30;;;;;;;;;5.25;5.25;;;;;22.28;72.37;100766.50;6339277;22;47673;-69
2021/09/15 09:20:18;;;;;;;;;6.50;6.25;;;;;22.28;72.19;100755.63;6338469;22;45346;-69
2021/09/15 09:23:02;;;;;;;;;7.25;7.25;;;;;22.29;72.27;100747.38;6339313;22;45532;-69
2021/09/15 09:25:31;;;;;;;;;5.75;5.75;;;;;22.30;72.48;100753.66;6338404;22;45453;-69
2021/09/15 09:27:56;;;;;;;;;9.25;7.25;;;;;22.31;72.11;100753.53;6338053;22;45333;-69
2021/09/15 09:30:35;;;;;;;;;7.00;6.00;;;;;22.17;72.93;100727.44;6340625;22;45364;-69
2021/09/15 09:33:02;;;;;;;;;6.00;6.00;;;;;22.16;72.39;100739.31;6339738;22;45186;-69
2021/09/15 09:35:42;;;;;;;;;8.00;7.00;;;;;22.24;72.71;100746.84;6339823;22;45442;-68
2021/09/15 09:38:16;;;;;;;;;8.75;7.25;;;;;22.28;72.44;100753.78;6338888;22;47110;-71
2021/09/15 09:40:54;;;;;;;;;7.00;7.00;;;;;22.32;72.64;100768.00;6340943;22;45245;-70
2021/09/15 09:43:19;;;;;;;;;8.50;6.75;;;;;22.24;72.30;100752.28;6338838;22;45415;-69
2021/09/15 09:45:49;;;;;;;;;10.00;9.00;;;;;22.17;72.47;100730.16;6338377;22;45397;-69
2021/09/15 09:48:34;;;;;;;;;6.75;6.75;;;;;22.39;72.55;100759.22;6338201;22;47022;-69
2021/09/15 09:51:02;;;;;;;;;7.00;6.00;;;;;22.41;73.10;100766.41;6340849;22;45214;-70
2021/09/15 09:53:28;;;;;;;;;9.25;9.25;;;;;22.23;72.94;100727.94;6340833;22;45313;-70
2021/09/15 09:55:58;;;;;;;;;9.00;8.25;;;;;22.30;72.28;100732.78;6365267;22;45175;-70
2021/09/15 09:58:26;;;;;;;;;11.00;8.25;;;;;22.45;72.60;100754.25;6340794;22;46466;-69
2021/09/15 10:00:55;;;;;;;;;14.00;10.00;;;;;22.45;73.75;100754.25;6338816;22;45788;-69
2021/09/15 10:03:21;;;;;;;;;9.75;9.00;;;;;22.34;73.14;100734.25;6312115;22;45429;-69
2021/09/15 10:05:47;;;;;;;;;9.75;9.00;;;;;22.42;73.74;100740.91;6340272;22;45270;-69
2021/09/15 10:08:16;;;;;;;;;9.25;9.25;;;;;22.53;73.60;100757.22;6340920;22;45441;-70
2021/09/15 10:10:42;;;;;;;;;9.00;8.00;;;;;22.46;72.63;100745.13;6338716;22;45129;-69
2021/09/15 10:13:11;;;;;;;;;9.50;8.25;;;;;22.55;73.12;100761.56;6364729;22;45247;-69
2021/09/15 10:15:45;;;;;;;;;8.50;7.50;;;;;22.49;73.21;100748.44;6340786;22;45481;-70
2021/09/15 10:18:13;;;;;;;;;7.75;7.00;;;;;22.44;73.04;100739.81;6340202;22;45706;-69
2021/09/15 10:20:45;;;;;;;;;7.00;5.25;;;;;22.43;72.66;100738.06;6338580;22;45467;-69
2021/09/15 10:23:38;;;;;;;;;5.50;5.00;;;;;22.63;72.29;100766.34;6365311;22;45323;-69
2021/09/15 10:26:36;;;;;;;;;3.75;3.75;;;;;22.66;72.35;100765.22;6340346;22;45245;-70
2021/09/15 10:29:24;;;;;;;;;4.75;4.00;;;;;22.67;72.29;100761.50;6339620;22;45501;-70
2021/09/15 10:31:56;;;;;;;;;3.75;3.75;;;;;22.67;72.62;100762.38;6340122;22;45258;-70
2021/09/15 10:34:37;;;;;;;;;3.25;3.25;;;;;22.70;72.57;100761.25;6332014;22;45861;-69
2021/09/15 10:37:23;;;;;;;;;4.25;4.25;;;;;22.70;72.57;100766.69;6333669;22;45483;-69
2021/09/15 10:39:59;;;;;;;;;4.00;4.00;;;;;22.63;72.38;100743.72;6359356;22;47175;-71
2021/09/15 10:42:34;;;;;;;;;5.00;4.00;;;;;22.73;72.18;100767.28;6332928;22;45386;-70
2021/09/15 10:45:17;;;;;;;;;7.25;5.50;;;;;22.65;71.93;100758.91;6333311;22;45464;-79
2021/09/15 10:48:04;;;;;;;;;6.00;6.00;;;;;22.75;72.18;100772.63;6334887;22;45581;-69
2021/09/15 10:50:30;;;;;;;;;5.75;5.25;;;;;22.76;72.07;100768.91;6333015;22;47273;-70
2021/09/15 10:53:07;;;;;;;;;5.25;4.50;;;;;22.77;71.78;100778.81;6335386;22;45427;-70
2021/09/15 10:55:56;;;;;;;;;7.00;6.75;;;;;22.78;71.96;100775.09;6333878;22;45337;-70
2021/09/15 10:58:26;;;;;;;;;7.75;7.50;;;;;22.79;72.53;100771.38;6324752;22;45396;-70
2021/09/15 11:01:03;;;;;;;;;10.50;9.50;;;;;22.81;72.90;100773.97;6324610;22;46123;-70
2021/09/15 11:03:33;;;;;;;;;7.75;6.75;;;;;22.83;72.61;100771.97;6323042;22;45454;-71
2021/09/15 11:06:08;;;;;;;;;8.50;6.00;;;;;22.84;71.99;100765.56;6326281;22;45447;-70
2021/09/15 11:08:38;;;;;;;;;10.00;8.50;;;;;22.85;72.59;100770.00;6326918;22;45695;-71
2021/09/15 11:11:09;;;;;;;;;10.75;10.25;;;;;22.82;72.46;100753.91;6328071;22;46572;-71
2021/09/15 11:13:34;;;;;;;;;6.00;6.00;;;;;22.87;72.75;100758.00;6327775;22;45585;-74
2021/09/15 11:16:24;;;;;;;;;9.00;8.50;;;;;22.90;72.44;100762.31;6327289;22;46008;-70
2021/09/15 11:19:16;;;;;;;;;8.00;8.00;;;;;22.92;72.57;100769.34;6324598;22;45893;-70
2021/09/15 11:21:55;;;;;;;;;11.00;10.00;;;;;22.96;72.33;100771.81;6312220;22;45873;-71
2021/09/15 11:24:24;;;;;;;;;11.50;11.00;;;;;22.74;72.16;100730.09;6325511;22;45715;-70
2021/09/15 11:26:51;;;;;;;;;11.00;10.00;;;;;22.93;71.86;100756.59;6327371;22;45638;-71
2021/09/15 11:29:51;;;;;;;;;9.00;8.25;;;;;23.00;71.97;100767.84;6326423;22;45864;-71
2021/09/15 11:32:18;;;;;;;;;12.25;11.25;;;;;22.95;72.50;100770.94;6351670;22;45351;-71